Time;durP1;ratioP1;P1;durP2;ratioP2;P2;SDS_P1;SDS_P2;PMS_P1;PMS_P2;Temp;Humidity;BMP_temperature;BMP_pressure;BME280_temperature;BME280_humidity;BME280_pressure;Samples;Min_cycle;Max_cycle;Signal;HPM_P1;HPM_P2
2020/12/11 00:00:17;;;;;;;33.07;21.37;;;4.70;99.90;;;;;;4911472;29;20844;-24
2020/12/11 00:02:44;;;;;;;31.70;20.40;;;4.70;99.90;;;;;;4913506;29;20456;-25
2020/12/11 00:05:12;;;;;;;27.30;18.97;;;4.70;99.90;;;;;;4912514;29;20480;-24
2020/12/11 00:07:40;;;;;;;31.17;20.53;;;4.70;99.90;;;;;;4911881;29;20450;-24
2020/12/11 00:10:09;;;;;;;22.83;17.00;;;4.70;99.90;;;;;;4913448;29;20444;-24
2020/12/11 00:12:36;;;;;;;28.90;19.70;;;4.70;99.90;;;;;;4912540;29;20447;-24
2020/12/11 00:15:04;;;;;;;24.73;19.70;;;4.70;99.90;;;;;;4913124;29;20471;-24
2020/12/11 00:17:31;;;;;;;26.43;18.10;;;4.70;99.90;;;;;;4895839;29;20858;-24
2020/12/11 00:19:58;;;;;;;25.37;17.83;;;4.60;99.90;;;;;;4910364;29;20550;-24
2020/12/11 00:22:26;;;;;;;28.33;19.70;;;4.70;99.90;;;;;;4912025;29;20583;-25
2020/12/11 00:24:54;;;;;;;28.80;19.93;;;4.70;99.90;;;;;;4912323;29;20463;-23
2020/12/11 00:27:24;;;;;;;28.30;18.17;;;4.70;99.90;;;;;;4912225;29;20459;-26
2020/12/11 00:29:51;;;;;;;27.10;19.23;;;4.70;99.90;;;;;;4911093;29;20440;-23
2020/12/11 00:32:18;;;;;;;28.87;20.23;;;4.60;99.90;;;;;;4910872;29;20945;-25
2020/12/11 00:34:45;;;;;;;28.87;19.50;;;4.60;99.90;;;;;;4912114;29;20455;-26
2020/12/11 00:37:12;;;;;;;26.87;20.60;;;4.70;99.90;;;;;;4912092;29;20459;-25
2020/12/11 00:39:44;;;;;;;30.53;22.27;;;4.70;99.90;;;;;;4911606;29;20435;-26
2020/12/11 00:42:10;;;;;;;31.67;22.53;;;4.60;99.90;;;;;;4892906;29;20476;-24
2020/12/11 00:44:37;;;;;;;31.70;22.07;;;4.70;99.90;;;;;;4910233;29;20535;-23
2020/12/11 00:47:04;;;;;;;29.13;21.13;;;4.60;99.90;;;;;;4910966;29;20463;-23
2020/12/11 00:49:31;;;;;;;33.93;22.50;;;4.60;99.90;;;;;;4911197;29;20436;-24
2020/12/11 00:51:59;;;;;;;28.70;21.03;;;4.60;99.90;;;;;;4910612;29;20784;-23
2020/12/11 00:54:31;;;;;;;28.67;21.93;;;4.70;99.90;;;;;;4909280;29;20440;-24
2020/12/11 00:57:00;;;;;;;30.60;21.70;;;4.60;99.90;;;;;;4910540;29;20868;-24
2020/12/11 00:59:27;;;;;;;28.07;21.47;;;4.60;99.90;;;;;;4911271;29;20550;-25
2020/12/11 01:01:53;;;;;;;27.20;20.53;;;4.70;99.90;;;;;;4911420;29;20921;-24
2020/12/11 01:04:20;;;;;;;28.17;21.30;;;4.70;99.90;;;;;;4911663;29;20440;-24
2020/12/11 01:06:47;;;;;;;28.20;20.60;;;4.70;99.90;;;;;;4909677;29;20451;-24
2020/12/11 01:09:14;;;;;;;27.57;20.17;;;4.70;99.90;;;;;;4910664;29;20478;-24
2020/12/11 01:11:41;;;;;;;26.77;20.13;;;4.70;99.90;;;;;;4909348;29;20489;-24
2020/12/11 01:14:09;;;;;;;27.17;21.63;;;4.70;99.90;;;;;;4909558;29;20740;-24
2020/12/11 01:16:36;;;;;;;29.77;21.10;;;4.70;99.90;;;;;;4911665;29;20459;-24
2020/12/11 01:19:06;;;;;;;28.40;21.50;;;4.70;99.90;;;;;;4911726;29;20818;-24
2020/12/11 01:21:36;;;;;;;24.03;19.87;;;4.70;99.90;;;;;;4911845;29;20505;-24
2020/12/11 01:24:03;;;;;;;28.80;20.67;;;4.70;99.90;;;;;;4911684;29;20451;-24
2020/12/11 01:26:30;;;;;;;28.93;21.20;;;4.70;99.90;;;;;;4914842;29;20451;-24
2020/12/11 01:28:57;;;;;;;25.77;21.73;;;4.70;99.90;;;;;;4914917;29;20455;-24
2020/12/11 01:31:25;;;;;;;25.03;19.00;;;4.70;99.90;;;;;;4915915;29;21101;-24
2020/12/11 01:33:51;;;;;;;27.40;19.83;;;4.70;99.90;;;;;;4913658;29;20455;-24
2020/12/11 01:36:25;;;;;;;31.53;22.23;;;4.60;99.90;;;;;;4912869;29;20975;-24
2020/12/11 01:38:52;;;;;;;30.37;21.30;;;4.70;99.90;;;;;;4913250;29;20454;-24
2020/12/11 01:41:19;;;;;;;26.07;20.50;;;4.70;99.90;;;;;;4914283;29;21028;-24
2020/12/11 01:43:46;;;;;;;28.03;20.40;;;4.70;99.90;;;;;;4915527;29;20435;-24
2020/12/11 01:46:15;;;;;;;26.50;20.67;;;4.70;99.90;;;;;;4914086;29;20468;-24
2020/12/11 01:48:45;;;;;;;30.90;21.40;;;4.70;99.90;;;;;;4912993;29;20449;-24
2020/12/11 01:51:13;;;;;;;25.67;19.93;;;4.70;99.90;;;;;;4914817;29;20685;-24
2020/12/11 01:53:43;;;;;;;29.23;20.80;;;4.80;99.90;;;;;;4914189;29;20473;-25
2020/12/11 01:56:13;;;;;;;29.33;21.67;;;4.70;99.90;;;;;;4914878;29;20452;-24
2020/12/11 01:58:42;;;;;;;30.87;21.60;;;4.70;99.90;;;;;;4915022;29;20467;-25
2020/12/11 02:01:10;;;;;;;28.20;22.13;;;4.80;99.90;;;;;;4914543;29;20494;-24
2020/12/11 02:03:37;;;;;;;27.00;18.97;;;4.70;99.90;;;;;;4913760;29;20780;-24
2020/12/11 02:06:05;;;;;;;24.90;19.73;;;4.70;99.90;;;;;;4913589;29;20708;-24
2020/12/11 02:08:33;;;;;;;31.70;20.83;;;4.70;99.90;;;;;;4914004;29;20558;-25
2020/12/11 02:11:00;;;;;;;32.47;20.67;;;4.60;99.90;;;;;;4914466;29;20451;-25
2020/12/11 02:13:27;;;;;;;27.87;21.63;;;4.60;99.90;;;;;;4914571;29;21011;-24
2020/12/11 02:15:54;;;;;;;27.63;21.10;;;4.60;99.90;;;;;;4915122;29;20729;-24
2020/12/11 02:18:20;;;;;;;29.60;21.40;;;4.60;99.90;;;;;;4913459;29;20440;-24
2020/12/11 02:20:47;;;;;;;31.10;21.30;;;4.60;99.90;;;;;;4914110;29;20459;-24
2020/12/11 02:23:15;;;;;;;27.40;20.87;;;4.60;99.90;;;;;;4914394;29;20444;-24
2020/12/11 02:25:43;;;;;;;28.90;21.53;;;4.50;99.90;;;;;;4915175;29;20448;-25
2020/12/11 02:28:09;;;;;;;31.20;23.13;;;4.50;99.90;;;;;;4914882;29;20495;-24
2020/12/11 02:30:36;;;;;;;28.40;20.40;;;4.50;99.90;;;;;;4913343;29;20467;-24
2020/12/11 02:33:03;;;;;;;27.83;21.13;;;4.40;99.90;;;;;;4912538;29;20436;-24
2020/12/11 02:35:30;;;;;;;31.23;21.90;;;4.40;99.90;;;;;;4911660;29;20463;-25
2020/12/11 02:37:57;;;;;;;27.10;19.87;;;4.40;99.90;;;;;;4911696;29;20859;-24
2020/12/11 02:40:25;;;;;;;28.83;19.87;;;4.30;99.90;;;;;;4913934;29;20463;-24
2020/12/11 02:42:51;;;;;;;26.93;20.20;;;4.20;99.90;;;;;;4913217;29;20478;-24
2020/12/11 02:45:18;;;;;;;28.27;21.40;;;4.20;99.90;;;;;;4912599;29;20542;-24
2020/12/11 02:47:45;;;;;;;26.00;20.10;;;4.20;99.90;;;;;;4911866;29;20459;-24
2020/12/11 02:50:12;;;;;;;31.80;20.70;;;4.10;99.90;;;;;;4912203;29;20512;-24
2020/12/11 02:52:39;;;;;;;27.63;20.97;;;4.10;99.90;;;;;;4912651;29;20759;-24
2020/12/11 02:55:06;;;;;;;25.90;19.77;;;4.10;99.90;;;;;;4913682;29;20458;-24
2020/12/11 02:57:34;;;;;;;27.83;19.23;;;4.10;99.90;;;;;;4913108;29;20467;-24
2020/12/11 03:00:00;;;;;;;28.07;20.43;;;4.10;99.90;;;;;;4913919;29;20772;-24
2020/12/11 03:02:27;;;;;;;27.50;21.67;;;4.00;99.90;;;;;;4912920;29;20472;-24
2020/12/11 03:04:54;;;;;;;28.03;21.07;;;3.90;99.90;;;;;;4914105;29;20794;-24
2020/12/11 03:07:21;;;;;;;30.27;22.63;;;3.80;99.90;;;;;;4914266;29;20793;-24
2020/12/11 03:09:48;;;;;;;28.07;20.33;;;3.80;99.90;;;;;;4913283;29;20444;-24
2020/12/11 03:12:16;;;;;;;29.13;22.53;;;3.80;99.90;;;;;;4913239;29;20736;-24
2020/12/11 03:14:43;;;;;;;31.10;21.07;;;3.70;99.90;;;;;;4913236;29;20479;-24
2020/12/11 03:17:10;;;;;;;29.10;19.87;;;3.70;99.90;;;;;;4911781;29;20730;-24
2020/12/11 03:19:37;;;;;;;30.97;22.47;;;3.60;99.90;;;;;;4911929;29;20440;-24
2020/12/11 03:22:04;;;;;;;29.20;20.77;;;3.60;99.90;;;;;;4911151;29;20487;-24
2020/12/11 03:24:31;;;;;;;28.47;20.00;;;3.60;99.90;;;;;;4912359;29;20628;-24
2020/12/11 03:26:57;;;;;;;26.83;18.80;;;3.50;99.90;;;;;;4912069;29;20448;-25
2020/12/11 03:29:24;;;;;;;31.20;21.50;;;3.50;99.90;;;;;;4911008;29;20455;-24
2020/12/11 03:31:52;;;;;;;27.80;21.20;;;3.40;99.90;;;;;;4911097;29;20591;-24
2020/12/11 03:34:19;;;;;;;28.63;21.27;;;3.40;99.90;;;;;;4911620;29;20456;-24
2020/12/11 03:36:48;;;;;;;30.67;21.73;;;3.30;99.90;;;;;;4912755;29;20848;-24
2020/12/11 03:39:15;;;;;;;33.10;21.60;;;3.20;99.90;;;;;;4912598;29;20468;-24
2020/12/11 03:41:43;;;;;;;31.87;21.83;;;3.00;99.90;;;;;;4914305;29;20468;-24
2020/12/11 03:44:10;;;;;;;33.97;22.50;;;3.10;99.90;;;;;;4912535;29;20830;-24
2020/12/11 03:46:37;;;;;;;35.37;22.93;;;3.10;99.90;;;;;;4912418;29;20478;-24
2020/12/11 03:49:04;;;;;;;34.53;24.10;;;3.10;99.90;;;;;;4910960;29;20432;-24
2020/12/11 03:51:31;;;;;;;33.17;23.23;;;3.00;99.90;;;;;;4911140;29;20451;-24
2020/12/11 03:53:58;;;;;;;37.20;24.00;;;3.00;99.90;;;;;;4910598;29;20440;-24
2020/12/11 03:56:25;;;;;;;36.20;23.50;;;3.00;99.90;;;;;;4911635;29;20447;-24
2020/12/11 03:58:52;;;;;;;33.70;24.27;;;3.00;99.90;;;;;;4912010;29;20647;-24
2020/12/11 04:01:19;;;;;;;39.63;24.87;;;2.90;99.90;;;;;;4912741;29;20499;-25
2020/12/11 04:03:47;;;;;;;36.73;23.77;;;2.90;99.90;;;;;;4911953;29;20672;-24
2020/12/11 04:06:17;;;;;;;33.10;22.83;;;2.90;99.90;;;;;;4911135;29;20867;-24
2020/12/11 04:08:45;;;;;;;31.43;20.97;;;2.90;99.90;;;;;;4910094;29;20779;-25
2020/12/11 04:11:13;;;;;;;41.13;26.00;;;2.90;99.90;;;;;;4909449;29;20719;-24
2020/12/11 04:13:41;;;;;;;34.13;22.43;;;2.80;99.90;;;;;;4911758;29;20985;-24
2020/12/11 04:16:10;;;;;;;30.70;21.20;;;2.80;99.90;;;;;;4911644;29;20499;-24
2020/12/11 04:18:37;;;;;;;34.50;22.57;;;2.70;99.90;;;;;;4909976;29;20745;-24
2020/12/11 04:21:03;;;;;;;35.90;22.00;;;2.60;99.90;;;;;;4910654;29;20503;-24
2020/12/11 04:23:31;;;;;;;30.10;22.10;;;2.60;99.90;;;;;;4908556;29;20455;-24
2020/12/11 04:25:58;;;;;;;36.73;22.10;;;2.50;99.90;;;;;;4910883;29;20706;-24
2020/12/11 04:28:25;;;;;;;41.67;24.80;;;2.50;99.90;;;;;;4911457;29;20459;-24
2020/12/11 04:30:52;;;;;;;32.27;22.17;;;2.40;99.90;;;;;;4911041;29;20462;-25
2020/12/11 04:33:19;;;;;;;32.60;21.47;;;2.40;99.90;;;;;;4910861;29;20737;-25
2020/12/11 04:35:46;;;;;;;35.40;21.53;;;2.40;99.90;;;;;;4909571;29;20452;-25
2020/12/11 04:38:12;;;;;;;39.83;23.50;;;2.30;99.90;;;;;;4910768;29;20447;-24
2020/12/11 04:40:40;;;;;;;42.33;24.10;;;2.20;99.90;;;;;;4910183;29;20458;-25
2020/12/11 04:43:10;;;;;;;36.80;23.60;;;2.20;99.90;;;;;;4910631;29;20467;-24
2020/12/11 04:45:37;;;;;;;36.53;23.23;;;2.20;99.90;;;;;;4910737;29;20464;-24
2020/12/11 04:48:07;;;;;;;36.40;23.80;;;2.20;99.90;;;;;;4892976;29;20455;-24
2020/12/11 04:50:34;;;;;;;36.87;24.10;;;2.10;99.90;;;;;;4910510;29;20444;-25
2020/12/11 04:53:03;;;;;;;42.23;25.93;;;2.10;99.90;;;;;;4909209;29;20599;-24
2020/12/11 04:55:34;;;;;;;38.37;24.70;;;2.00;99.90;;;;;;4909193;29;20516;-24
2020/12/11 04:58:05;;;;;;;37.17;23.90;;;2.10;99.90;;;;;;4908335;29;20996;-24
2020/12/11 05:00:32;;;;;;;38.10;24.70;;;2.00;99.90;;;;;;4910347;29;20467;-24
2020/12/11 05:03:00;;;;;;;39.13;24.73;;;2.00;99.90;;;;;;4912992;29;20837;-24
2020/12/11 05:05:27;;;;;;;41.03;25.93;;;2.10;99.90;;;;;;4913728;29;20463;-24
2020/12/11 05:07:54;;;;;;;38.23;23.73;;;2.10;99.90;;;;;;4913465;29;20762;-24
2020/12/11 05:10:21;;;;;;;35.23;23.17;;;2.00;99.90;;;;;;4913401;29;20869;-24
2020/12/11 05:12:48;;;;;;;39.13;26.13;;;2.00;99.90;;;;;;4912065;29;20478;-25
2020/12/11 05:15:19;;;;;;;41.37;25.60;;;2.00;99.90;;;;;;4911442;29;20607;-25
2020/12/11 05:17:45;;;;;;;46.50;27.97;;;2.00;99.90;;;;;;4912007;29;20760;-25
2020/12/11 05:20:12;;;;;;;37.53;26.23;;;2.00;99.90;;;;;;4911888;29;20443;-25
2020/12/11 05:22:40;;;;;;;45.57;26.50;;;2.00;99.90;;;;;;4908859;29;20594;-25
2020/12/11 05:25:13;;;;;;;48.33;25.80;;;2.00;99.90;;;;;;4910357;29;20742;-25
2020/12/11 05:27:41;;;;;;;37.10;23.93;;;2.00;99.90;;;;;;4909552;29;20535;-25
2020/12/11 05:30:24;;;;;;;39.33;25.83;;;1.90;99.90;;;;;;4908311;29;20753;-25
2020/12/11 05:32:54;;;;;;;39.93;24.73;;;1.90;99.90;;;;;;4909218;29;20619;-25
2020/12/11 05:35:29;;;;;;;38.73;24.10;;;1.90;99.90;;;;;;4907409;29;20447;-25
2020/12/11 05:37:59;;;;;;;40.17;23.37;;;1.80;99.90;;;;;;4909443;29;20446;-25
2020/12/11 05:40:31;;;;;;;39.10;23.30;;;1.80;99.90;;;;;;4909052;29;20486;-26
2020/12/11 05:43:15;;;;;;;41.57;25.87;;;1.80;99.90;;;;;;4908063;29;20583;-25
2020/12/11 05:45:49;;;;;;;37.37;23.97;;;1.70;99.90;;;;;;4907246;29;20459;-25
2020/12/11 05:48:17;;;;;;;37.87;24.60;;;1.70;99.90;;;;;;4897909;29;20462;-25
2020/12/11 05:50:44;;;;;;;45.97;24.97;;;1.70;99.90;;;;;;4905481;29;20804;-25
2020/12/11 05:53:10;;;;;;;52.13;28.20;;;1.70;99.90;;;;;;4906831;29;20496;-25
2020/12/11 05:55:37;;;;;;;50.27;28.03;;;1.70;99.90;;;;;;4905494;29;20620;-25
2020/12/11 05:58:07;;;;;;;54.43;31.50;;;1.70;99.90;;;;;;4909706;29;20886;-25
2020/12/11 06:00:34;;;;;;;53.73;29.10;;;1.70;99.90;;;;;;4908870;29;20464;-25
2020/12/11 06:03:02;;;;;;;56.33;28.40;;;1.60;99.90;;;;;;4908862;29;20511;-26
2020/12/11 06:05:30;;;;;;;50.10;28.97;;;1.60;99.90;;;;;;4903477;29;20455;-25
2020/12/11 06:08:01;;;;;;;47.93;26.50;;;1.60;99.90;;;;;;4902995;29;20677;-25
2020/12/11 06:10:27;;;;;;;45.70;26.30;;;1.60;99.90;;;;;;4905021;29;20456;-26
2020/12/11 06:12:54;;;;;;;59.03;28.83;;;1.60;99.90;;;;;;4899294;29;20467;-26
2020/12/11 06:15:31;;;;;;;47.60;29.20;;;1.60;99.90;;;;;;4900039;29;20756;-25
2020/12/11 06:18:03;;;;;;;44.83;27.43;;;1.60;99.90;;;;;;4899988;29;20747;-25
2020/12/11 06:20:33;;;;;;;44.43;26.73;;;1.60;99.90;;;;;;4898106;29;20975;-25
2020/12/11 06:23:24;;;;;;;46.13;26.70;;;1.50;99.90;;;;;;4896787;29;20613;-26
2020/12/11 06:25:52;;;;;;;43.60;27.43;;;1.50;99.90;;;;;;4894433;29;20723;-25
2020/12/11 06:28:39;;;;;;;51.47;29.20;;;1.50;99.90;;;;;;4895292;29;20447;-25
2020/12/11 06:31:07;;;;;;;49.33;26.67;;;1.50;99.90;;;;;;4897130;29;20805;-26
2020/12/11 06:33:35;;;;;;;45.80;26.90;;;1.40;99.90;;;;;;4893162;29;20456;-26
2020/12/11 06:36:05;;;;;;;52.00;31.00;;;1.40;99.90;;;;;;4894336;29;20699;-25
2020/12/11 06:38:42;;;;;;;55.47;32.17;;;1.40;99.90;;;;;;4891924;29;20459;-25
2020/12/11 06:41:09;;;;;;;97.70;53.30;;;1.40;99.90;;;;;;4895401;29;20571;-25
2020/12/11 06:43:38;;;;;;;76.23;39.13;;;1.40;99.90;;;;;;4889530;29;20892;-26
2020/12/11 06:46:15;;;;;;;67.83;34.07;;;1.40;99.90;;;;;;4884938;29;20586;-25
2020/12/11 06:49:07;;;;;;;55.87;29.20;;;1.40;99.90;;;;;;4891772;29;21024;-25
2020/12/11 06:51:56;;;;;;;59.40;30.93;;;1.40;99.90;;;;;;4895117;29;20448;-25
2020/12/11 06:54:53;;;;;;;58.25;31.83;;;1.40;99.90;;;;;;4895265;29;20471;-25
2020/12/11 06:57:37;;;;;;;57.00;33.03;;;1.40;99.90;;;;;;4888297;29;20287;-25
2020/12/11 07:00:30;;;;;;;56.23;30.27;;;1.40;99.90;;;;;;4887336;29;20728;-25
2020/12/11 07:03:23;;;;;;;58.53;32.20;;;1.40;99.90;;;;;;4880948;29;20664;-26
2020/12/11 07:06:09;;;;;;;47.97;29.53;;;1.40;99.90;;;;;;4884422;29;20857;-25
2020/12/11 07:08:37;;;;;;;55.13;28.80;;;1.40;99.90;;;;;;4885778;29;20471;-25
2020/12/11 07:11:16;;;;;;;51.53;28.30;;;1.50;99.90;;;;;;4884257;29;20757;-25
2020/12/11 07:13:51;;;;;;;46.20;27.80;;;1.50;99.90;;;;;;4882600;29;20447;-25
2020/12/11 07:16:20;;;;;;;62.37;29.60;;;1.60;99.90;;;;;;4885104;29;21018;-25
2020/12/11 07:18:48;;;;;;;46.20;25.77;;;1.60;99.90;;;;;;4881509;29;20698;-25
2020/12/11 07:21:15;;;;;;;46.63;25.93;;;1.70;99.90;;;;;;4885444;29;20830;-25
2020/12/11 07:23:43;;;;;;;47.40;28.77;;;1.80;99.90;;;;;;4885577;29;20705;-25
2020/12/11 07:26:11;;;;;;;41.67;26.40;;;1.90;99.90;;;;;;4888294;29;20475;-25
2020/12/11 07:28:38;;;;;;;49.90;27.43;;;1.90;99.90;;;;;;4881670;29;21081;-25
2020/12/11 07:31:10;;;;;;;45.50;27.17;;;2.00;99.90;;;;;;4878236;29;20728;-25
2020/12/11 07:33:37;;;;;;;45.37;27.37;;;2.10;99.90;;;;;;4874925;29;20643;-26
2020/12/11 07:36:05;;;;;;;52.43;27.40;;;2.20;99.90;;;;;;4879236;29;20730;-25
2020/12/11 07:38:33;;;;;;;40.23;24.70;;;2.30;99.90;;;;;;4878803;29;20452;-25
2020/12/11 07:41:05;;;;;;;45.60;24.60;;;2.30;99.90;;;;;;4875206;29;20460;-25
2020/12/11 07:43:33;;;;;;;40.90;24.90;;;2.20;99.90;;;;;;4880581;29;20471;-26
2020/12/11 07:45:59;;;;;;;38.10;23.37;;;2.20;99.90;;;;;;4881753;29;20926;-24
2020/12/11 07:48:26;;;;;;;40.33;25.57;;;2.30;99.90;;;;;;4877207;29;20911;-24
2020/12/11 07:51:00;;;;;;;39.63;25.17;;;2.40;99.90;;;;;;4880183;29;20748;-24
2020/12/11 07:53:29;;;;;;;44.90;25.27;;;2.40;99.90;;;;;;4877635;29;20903;-25
2020/12/11 07:55:56;;;;;;;40.17;23.67;;;2.40;99.90;;;;;;4881905;29;20724;-26
2020/12/11 07:58:26;;;;;;;40.00;23.10;;;2.20;99.90;;;;;;4880007;29;20750;-26
2020/12/11 08:00:53;;;;;;;38.93;22.90;;;2.10;99.90;;;;;;4873629;29;20490;-25
2020/12/11 08:03:26;;;;;;;45.23;25.30;;;2.20;99.90;;;;;;4875905;29;20471;-25
2020/12/11 08:05:58;;;;;;;40.50;23.97;;;2.30;99.90;;;;;;4876199;29;20485;-25
2020/12/11 08:08:28;;;;;;;34.27;22.10;;;2.30;99.90;;;;;;4896794;29;20459;-25
2020/12/11 08:10:55;;;;;;;38.60;22.33;;;2.40;99.90;;;;;;4897896;29;20959;-25
2020/12/11 08:13:23;;;;;;;37.70;24.90;;;2.40;99.90;;;;;;4898224;29;20435;-25
2020/12/11 08:16:01;;;;;;;37.80;25.40;;;2.50;99.90;;;;;;4898253;29;20462;-25
2020/12/11 08:18:31;;;;;;;40.93;24.60;;;2.60;99.90;;;;;;4901265;29;20473;-25
2020/12/11 08:20:59;;;;;;;39.30;22.70;;;2.60;99.90;;;;;;4899945;29;20693;-25
2020/12/11 08:23:37;;;;;;;40.97;23.30;;;2.70;99.90;;;;;;4904148;29;20471;-25
2020/12/11 08:26:15;;;;;;;53.70;32.30;;;2.80;99.90;;;;;;4902014;29;20577;-25
2020/12/11 08:32:17;;;;;;;39.87;24.80;;;2.90;99.90;;;;;;4899813;29;20490;-25
2020/12/11 08:34:45;;;;;;;43.87;25.40;;;3.00;99.90;;;;;;4901453;29;20446;-25
2020/12/11 08:37:17;;;;;;;42.37;29.17;;;3.10;99.90;;;;;;4904946;29;20469;-25
2020/12/11 08:43:03;;;;;;;44.63;28.10;;;3.20;99.90;;;;;;4900648;29;20902;-25
2020/12/11 08:45:41;;;;;;;44.40;28.03;;;3.20;99.90;;;;;;4904882;29;20462;-25
2020/12/11 08:50:57;;;;;;;48.60;28.83;;;3.40;99.90;;;;;;4904431;29;20505;-25
2020/12/11 08:53:26;;;;;;;46.80;27.67;;;3.40;99.90;;;;;;4903699;29;20765;-25
2020/12/11 08:55:53;;;;;;;40.83;25.77;;;3.50;99.90;;;;;;4905251;29;20443;-25
2020/12/11 08:58:20;;;;;;;41.63;26.63;;;3.50;99.90;;;;;;4903829;29;20570;-25
2020/12/11 09:00:48;;;;;;;38.47;25.70;;;3.50;99.90;;;;;;4903295;29;20451;-25
2020/12/11 09:03:15;;;;;;;39.60;25.23;;;3.60;99.90;;;;;;4904430;29;20483;-25
2020/12/11 09:05:42;;;;;;;39.07;23.97;;;3.80;99.90;;;;;;4903322;29;20792;-26
2020/12/11 09:08:10;;;;;;;36.83;24.37;;;4.00;99.90;;;;;;4904171;29;20955;-25
2020/12/11 09:10:37;;;;;;;42.63;24.50;;;4.20;99.90;;;;;;4900203;29;20609;-25
2020/12/11 09:13:04;;;;;;;40.90;23.87;;;4.30;99.90;;;;;;4904885;29;20450;-25
2020/12/11 09:15:31;;;;;;;33.90;23.93;;;4.50;99.90;;;;;;4903267;29;20580;-25
2020/12/11 09:17:57;;;;;;;41.63;24.50;;;4.60;99.90;;;;;;4905459;29;21244;-25
2020/12/11 09:20:24;;;;;;;32.00;22.20;;;4.60;99.90;;;;;;4903930;29;20454;-25
2020/12/11 09:22:51;;;;;;;34.57;22.57;;;4.70;99.90;;;;;;4904022;29;21263;-25
2020/12/11 09:25:19;;;;;;;34.63;20.43;;;4.80;99.90;;;;;;4902062;29;20451;-24
2020/12/11 09:27:46;;;;;;;33.77;22.67;;;4.80;99.90;;;;;;4885865;29;20880;-23
2020/12/11 09:30:21;;;;;;;31.80;20.60;;;4.90;99.90;;;;;;4904272;29;20451;-25
2020/12/11 09:32:55;;;;;;;29.20;19.73;;;5.00;99.90;;;;;;4903098;29;20486;-25
2020/12/11 09:35:26;;;;;;;31.03;22.07;;;4.90;99.90;;;;;;4917877;29;21018;-25
2020/12/11 09:37:53;;;;;;;32.27;22.10;;;4.90;99.90;;;;;;4905169;29;20593;-25
2020/12/11 09:40:29;;;;;;;31.93;21.10;;;4.90;99.90;;;;;;4905340;29;20451;-25
2020/12/11 09:45:40;;;;;;;28.57;20.97;;;4.60;99.90;;;;;;4863953;29;20474;-25
2020/12/11 09:48:12;;;;;;;28.07;20.10;;;4.70;99.90;;;;;;4889627;29;20784;-25
2020/12/11 09:50:46;;;;;;;26.70;19.97;;;4.60;99.90;;;;;;4887978;29;20444;-25
2020/12/11 09:53:38;;;;;;;28.37;19.73;;;4.50;99.90;;;;;;4887207;29;20531;-24
2020/12/11 09:56:08;;;;;;;26.13;16.73;;;4.70;99.90;;;;;;4887410;29;20443;-24
2020/12/11 09:58:39;;;;;;;24.50;17.33;;;4.80;99.90;;;;;;4888512;29;20981;-23
2020/12/11 10:01:08;;;;;;;32.10;20.37;;;4.90;99.90;;;;;;4899121;29;20439;-23
2020/12/11 10:03:40;;;;;;;31.63;19.10;;;5.20;99.90;;;;;;4906448;29;20475;-23
2020/12/11 10:06:10;;;;;;;33.03;20.67;;;5.40;99.90;;;;;;4908472;29;20451;-24
2020/12/11 10:08:38;;;;;;;33.33;21.40;;;5.60;99.90;;;;;;4908658;29;20458;-24
2020/12/11 10:11:06;;;;;;;25.60;18.13;;;5.70;99.90;;;;;;4906147;29;20449;-24
2020/12/11 10:13:41;;;;;;;38.47;19.70;;;5.80;99.90;;;;;;4904532;29;20454;-24
2020/12/11 10:16:09;;;;;;;26.13;19.43;;;5.80;99.90;;;;;;4906953;29;20554;-24
2020/12/11 10:18:39;;;;;;;24.60;17.93;;;5.90;99.90;;;;;;4904019;29;20451;-24
2020/12/11 10:21:11;;;;;;;23.90;16.87;;;6.00;99.90;;;;;;4905514;29;20461;-24
2020/12/11 10:23:38;;;;;;;25.27;18.53;;;6.00;99.90;;;;;;4909640;29;20745;-24
2020/12/11 10:26:05;;;;;;;25.40;17.13;;;5.90;99.90;;;;;;4905212;29;20928;-24
2020/12/11 10:28:33;;;;;;;24.10;18.03;;;5.90;99.90;;;;;;4907354;29;21119;-24
2020/12/11 10:31:00;;;;;;;23.10;16.60;;;6.00;99.90;;;;;;4905603;29;20469;-24
2020/12/11 10:33:26;;;;;;;23.87;17.17;;;6.10;99.90;;;;;;4905766;29;20483;-24
2020/12/11 10:35:53;;;;;;;24.67;17.20;;;6.20;99.90;;;;;;4907457;29;20730;-24
2020/12/11 10:38:20;;;;;;;26.47;18.37;;;6.30;99.90;;;;;;4906243;29;20510;-24
2020/12/11 10:40:47;;;;;;;22.77;16.87;;;6.40;99.90;;;;;;4902451;29;20469;-24
2020/12/11 10:43:15;;;;;;;28.00;18.57;;;6.60;99.90;;;;;;4908238;29;20597;-24
2020/12/11 10:45:43;;;;;;;26.40;19.37;;;6.80;99.90;;;;;;4910461;29;20449;-24
2020/12/11 10:48:10;;;;;;;27.33;19.37;;;7.00;99.90;;;;;;4908194;29;20458;-24
2020/12/11 10:50:38;;;;;;;27.37;19.40;;;7.10;99.90;;;;;;4904563;29;20447;-24
2020/12/11 10:53:08;;;;;;;27.00;18.90;;;7.30;99.90;;;;;;4908550;29;20443;-24
2020/12/11 10:55:36;;;;;;;22.47;17.03;;;7.30;99.90;;;;;;4908066;29;20451;-24
2020/12/11 10:58:03;;;;;;;24.37;17.43;;;7.30;99.90;;;;;;4904939;29;20945;-24
2020/12/11 11:00:30;;;;;;;25.43;19.63;;;7.50;99.90;;;;;;4901424;29;20919;-24
2020/12/11 11:02:58;;;;;;;31.10;24.27;;;7.50;99.90;;;;;;4903048;29;20479;-24
2020/12/11 11:05:25;;;;;;;27.40;20.10;;;7.70;99.90;;;;;;4883938;29;20721;-25
2020/12/11 11:07:52;;;;;;;24.73;17.27;;;7.80;99.90;;;;;;4894541;29;20944;-24
2020/12/11 11:10:28;;;;;;;25.20;19.17;;;7.90;99.90;;;;;;4897592;29;20704;-24
2020/12/11 11:13:03;;;;;;;28.50;18.60;;;8.00;99.90;;;;;;4893793;29;20677;-24
2020/12/11 11:15:46;;;;;;;21.37;17.10;;;8.10;99.90;;;;;;4896887;29;21519;-24
2020/12/11 11:18:34;;;;;;;26.10;18.57;;;8.20;99.90;;;;;;4902777;29;20537;-23
2020/12/11 11:21:31;;;;;;;28.27;20.13;;;8.30;99.90;;;;;;4894188;29;20466;-25
2020/12/11 11:24:19;;;;;;;24.67;18.00;;;8.30;99.90;;;;;;4896739;29;20483;-25
2020/12/11 11:27:08;;;;;;;20.10;17.63;;;8.30;99.90;;;;;;4894513;29;20482;-26
2020/12/11 11:29:35;;;;;;;23.43;17.97;;;8.30;99.90;;;;;;4892503;29;20692;-26
2020/12/11 11:32:02;;;;;;;25.33;20.10;;;8.30;99.90;;;;;;4897730;29;21120;-25
2020/12/11 11:34:30;;;;;;;24.67;18.60;;;8.10;99.90;;;;;;4900003;29;20846;-26
2020/12/11 11:36:58;;;;;;;23.43;17.37;;;8.10;99.90;;;;;;4899471;29;20451;-25
2020/12/11 11:39:25;;;;;;;25.43;19.87;;;8.10;99.90;;;;;;4906483;29;20839;-25
2020/12/11 11:41:55;;;;;;;23.90;19.50;;;8.30;99.90;;;;;;4897582;29;20735;-25
2020/12/11 11:47:10;;;;;;;22.40;16.37;;;8.30;99.90;;;;;;4887046;29;20720;-25
2020/12/11 11:49:54;;;;;;;20.63;16.13;;;8.40;99.90;;;;;;4892046;29;20447;-25
2020/12/11 11:52:26;;;;;;;20.37;15.53;;;8.30;99.90;;;;;;4880286;29;20961;-25
2020/12/11 11:54:53;;;;;;;22.57;17.33;;;8.20;99.90;;;;;;4896496;29;20822;-25
2020/12/11 11:57:19;;;;;;;24.20;16.00;;;8.20;99.90;;;;;;4894620;29;20689;-26
2020/12/11 11:59:51;;;;;;;22.03;17.00;;;8.40;99.90;;;;;;4898501;29;20505;-25
2020/12/11 12:02:18;;;;;;;21.27;16.67;;;8.50;99.90;;;;;;4897822;29;20470;-26
2020/12/11 12:04:46;;;;;;;23.63;18.73;;;8.70;99.90;;;;;;4914932;29;20959;-24
2020/12/11 12:07:13;;;;;;;21.40;17.37;;;8.80;99.90;;;;;;4925749;29;21231;-24
2020/12/11 12:09:40;;;;;;;23.80;17.60;;;8.90;99.90;;;;;;4918024;28;20474;-24
2020/12/11 12:12:07;;;;;;;20.40;16.10;;;9.00;99.90;;;;;;4906010;29;20748;-24
2020/12/11 12:14:33;;;;;;;19.87;16.83;;;8.90;99.90;;;;;;4909251;29;20550;-24
2020/12/11 12:17:03;;;;;;;21.13;17.07;;;8.70;99.90;;;;;;4910890;29;20545;-24
2020/12/11 12:19:32;;;;;;;25.10;17.73;;;8.20;99.90;;;;;;4908749;29;20454;-24
2020/12/11 12:28:15;;;;;;;22.53;17.10;;;7.50;99.90;;;;;;4907629;29;20454;-25
2020/12/11 12:30:40;;;;;;;22.20;17.07;;;7.30;99.90;;;;;;4911119;29;20463;-25
2020/12/11 12:33:49;;;;;;;22.37;17.20;;;7.10;99.90;;;;;;4907676;29;20483;-25
2020/12/11 12:36:52;;;;;;;24.63;18.10;;;7.20;99.90;;;;;;4909936;29;20893;-25
2020/12/11 12:40:07;;;;;;;25.87;18.40;;;7.40;99.90;;;;;;4908032;29;20530;-25
2020/12/11 12:43:14;;;;;;;23.77;17.23;;;7.60;99.90;;;;;;4903257;29;20482;-24
2020/12/11 12:46:03;;;;;;;23.87;17.43;;;7.50;99.90;;;;;;4891308;29;20455;-25
2020/12/11 12:48:38;;;;;;;21.97;15.90;;;7.50;99.90;;;;;;4912160;29;20961;-25
2020/12/11 12:51:12;;;;;;;21.30;15.70;;;7.60;99.90;;;;;;4892579;29;20462;-25
2020/12/11 12:53:44;;;;;;;21.43;15.87;;;7.50;99.90;;;;;;4909038;29;20446;-25
2020/12/11 12:59:05;;;;;;;22.73;16.30;;;7.60;99.90;;;;;;4911080;29;20540;-25
2020/12/11 13:01:49;;;;;;;18.33;13.97;;;7.60;99.90;;;;;;4913524;29;21052;-25
2020/12/11 13:04:23;;;;;;;18.63;14.53;;;7.70;99.90;;;;;;4908871;29;20475;-25
2020/12/11 13:06:50;;;;;;;20.10;14.33;;;7.70;99.90;;;;;;4908459;29;20442;-25
2020/12/11 13:09:18;;;;;;;20.80;14.93;;;7.40;99.90;;;;;;4908430;29;20450;-25
2020/12/11 13:11:49;;;;;;;24.77;16.73;;;7.30;99.90;;;;;;4912580;29;20462;-25
2020/12/11 13:14:26;;;;;;;22.40;15.20;;;7.30;99.90;;;;;;4908703;29;20467;-25